Time;durP1;ratioP1;P1;durP2;ratioP2;P2;SDS_P1;SDS_P2;PMS_P1;PMS_P2;Temp;Humidity;BMP_temperature;BMP_pressure;BME280_temperature;BME280_humidity;BME280_pressure;Samples;Min_cycle;Max_cycle;Signal;HPM_P1;HPM_P2
2021/01/22 00:01:59;;;;;;;7.00;3.65;;;10.00;77.30;;;;;;4994612;28;20037;-71
2021/01/22 00:04:27;;;;;;;5.60;2.75;;;9.70;77.30;;;;;;5042959;28;20025;-71
2021/01/22 00:06:53;;;;;;;5.90;2.72;;;9.30;77.20;;;;;;5025973;28;20040;-71
2021/01/22 00:09:19;;;;;;;5.10;2.53;;;9.10;78.20;;;;;;5036338;28;20036;-71
2021/01/22 00:11:45;;;;;;;5.93;2.65;;;8.90;79.10;;;;;;5044572;28;20467;-71
2021/01/22 00:14:10;;;;;;;6.32;2.97;;;8.80;79.40;;;;;;5026236;28;20037;-70
2021/01/22 00:16:36;;;;;;;5.53;2.88;;;8.70;79.60;;;;;;5010816;28;20029;-71
2021/01/22 00:19:02;;;;;;;5.10;2.60;;;8.60;79.70;;;;;;5023412;28;20386;-71
2021/01/22 00:21:29;;;;;;;4.50;2.50;;;8.60;80.30;;;;;;5038099;28;20072;-70
2021/01/22 00:23:55;;;;;;;6.18;3.00;;;8.50;79.90;;;;;;5043074;28;20108;-71
2021/01/22 00:26:21;;;;;;;5.70;2.90;;;8.40;80.40;;;;;;5035712;28;20107;-71
2021/01/22 00:28:46;;;;;;;4.43;2.47;;;8.30;80.30;;;;;;5025864;28;20060;-71
2021/01/22 00:31:12;;;;;;;4.75;2.25;;;8.30;80.20;;;;;;5002551;28;20065;-71
2021/01/22 00:33:38;;;;;;;5.18;2.50;;;8.30;80.30;;;;;;5041508;28;20048;-71
2021/01/22 00:36:04;;;;;;;5.20;2.58;;;8.30;80.30;;;;;;5019399;28;20025;-71
2021/01/22 00:38:30;;;;;;;4.25;2.00;;;8.30;80.30;;;;;;5042119;28;20037;-71
2021/01/22 00:40:55;;;;;;;4.53;2.40;;;8.20;79.90;;;;;;5039050;28;20371;-71
2021/01/22 00:43:21;;;;;;;5.07;2.25;;;8.20;80.10;;;;;;5025892;28;20037;-71
2021/01/22 00:45:46;;;;;;;3.83;1.92;;;8.10;79.80;;;;;;5035683;28;20072;-70
2021/01/22 00:48:12;;;;;;;2.97;1.60;;;8.00;79.70;;;;;;5037802;28;20036;-71
2021/01/22 00:50:38;;;;;;;3.30;1.48;;;8.00;80.20;;;;;;5023629;28;20041;-71
2021/01/22 00:53:03;;;;;;;2.97;1.40;;;8.00;79.50;;;;;;5021347;28;20101;-71
2021/01/22 00:55:29;;;;;;;2.47;1.25;;;8.00;78.50;;;;;;5043216;28;20149;-71
2021/01/22 00:57:54;;;;;;;2.10;1.00;;;7.80;78.60;;;;;;5038564;28;20129;-70
2021/01/22 01:00:20;;;;;;;2.73;1.50;;;7.80;78.70;;;;;;5048877;28;20052;-71
2021/01/22 01:02:46;;;;;;;2.78;1.40;;;7.70;79.00;;;;;;5058280;28;20035;-71
2021/01/22 01:05:12;;;;;;;2.60;1.40;;;7.70;78.90;;;;;;5061074;28;20128;-71
2021/01/22 01:07:38;;;;;;;5.30;1.90;;;7.70;78.80;;;;;;5063588;28;20300;-70
2021/01/22 01:10:05;;;;;;;4.72;1.60;;;7.70;78.50;;;;;;5063916;28;20444;-70
2021/01/22 01:12:30;;;;;;;3.90;1.70;;;7.60;78.70;;;;;;5062260;28;20120;-71
2021/01/22 01:14:56;;;;;;;3.28;1.80;;;7.60;79.10;;;;;;5065635;28;20108;-70
2021/01/22 01:17:22;;;;;;;4.60;1.63;;;7.70;79.00;;;;;;5056267;28;20386;-71
2021/01/22 01:19:47;;;;;;;3.90;2.00;;;7.70;79.00;;;;;;5063625;28;20453;-70
2021/01/22 01:22:13;;;;;;;3.58;1.67;;;7.80;79.00;;;;;;5066194;28;20044;-71
2021/01/22 01:24:39;;;;;;;5.55;2.17;;;7.80;78.70;;;;;;5059735;28;20033;-71
2021/01/22 01:27:04;;;;;;;4.80;2.38;;;7.80;78.70;;;;;;5068174;28;20473;-71
2021/01/22 01:29:30;;;;;;;4.03;2.07;;;7.80;78.50;;;;;;5062347;28;20059;-71
2021/01/22 01:31:56;;;;;;;5.33;1.90;;;7.90;78.40;;;;;;5058341;28;20044;-71
2021/01/22 01:34:21;;;;;;;4.70;2.25;;;7.80;78.30;;;;;;5062793;28;20045;-71
2021/01/22 01:36:47;;;;;;;3.88;1.77;;;7.80;78.50;;;;;;5065107;28;20028;-71
2021/01/22 01:39:12;;;;;;;5.20;2.70;;;7.80;78.40;;;;;;5042913;28;20025;-71
2021/01/22 01:41:38;;;;;;;4.72;2.20;;;7.90;78.50;;;;;;5066939;28;20043;-70
2021/01/22 01:44:05;;;;;;;5.57;2.35;;;7.90;78.40;;;;;;5062136;28;20044;-71
2021/01/22 01:46:31;;;;;;;3.85;1.88;;;7.90;78.10;;;;;;5062680;28;20029;-71
2021/01/22 01:48:57;;;;;;;5.47;2.53;;;7.90;78.50;;;;;;5058582;28;20036;-70
2021/01/22 01:51:23;;;;;;;3.08;1.65;;;7.80;78.50;;;;;;5059332;28;20029;-70
2021/01/22 01:53:48;;;;;;;5.53;2.83;;;7.90;78.90;;;;;;5065523;28;20052;-71
2021/01/22 01:56:14;;;;;;;4.25;2.05;;;7.90;78.80;;;;;;5060184;28;20033;-71
2021/01/22 01:58:40;;;;;;;5.85;2.10;;;7.90;78.70;;;;;;5057284;28;20060;-71
2021/01/22 02:01:08;;;;;;;5.00;2.50;;;8.00;78.40;;;;;;5044795;28;20040;-71
2021/01/22 02:03:34;;;;;;;4.90;2.50;;;7.90;78.40;;;;;;5046043;28;20024;-71
2021/01/22 02:05:59;;;;;;;4.07;2.00;;;8.00;78.10;;;;;;5044017;28;20036;-70
2021/01/22 02:08:25;;;;;;;5.53;2.23;;;8.00;78.00;;;;;;5023420;28;20029;-71
2021/01/22 02:10:52;;;;;;;6.13;2.70;;;8.00;78.10;;;;;;5027452;28;20487;-70
2021/01/22 02:13:19;;;;;;;7.13;2.70;;;8.00;78.00;;;;;;5021863;28;20491;-71
2021/01/22 02:15:46;;;;;;;5.30;2.67;;;8.00;77.90;;;;;;5046424;28;20063;-70
2021/01/22 02:18:12;;;;;;;4.85;2.60;;;8.10;78.00;;;;;;5042659;28;20026;-71
2021/01/22 02:20:50;;;;;;;5.45;2.80;;;8.10;78.00;;;;;;5034907;28;20136;-71
2021/01/22 02:23:19;;;;;;;6.30;3.10;;;8.20;78.00;;;;;;5040861;28;20021;-71
2021/01/22 02:25:46;;;;;;;5.68;3.00;;;8.20;77.80;;;;;;5022492;28;20036;-71
2021/01/22 02:28:13;;;;;;;6.13;3.30;;;8.30;77.70;;;;;;5035443;28;20033;-71
2021/01/22 02:30:43;;;;;;;5.60;2.63;;;8.30;77.40;;;;;;5038417;28;20060;-71
2021/01/22 02:33:11;;;;;;;7.93;3.67;;;8.40;77.30;;;;;;5041849;28;20415;-71
2021/01/22 02:35:38;;;;;;;5.97;3.42;;;8.40;77.20;;;;;;5024334;28;20029;-71
2021/01/22 02:38:06;;;;;;;7.22;3.70;;;8.40;77.20;;;;;;5045250;28;20443;-70
2021/01/22 02:40:34;;;;;;;7.57;4.43;;;8.40;77.20;;;;;;5037912;28;20548;-71
2021/01/22 02:43:01;;;;;;;6.50;3.75;;;8.40;77.20;;;;;;5042753;28;20046;-71
2021/01/22 02:45:28;;;;;;;6.57;3.88;;;8.50;77.00;;;;;;5038132;28;20033;-71
2021/01/22 02:47:54;;;;;;;8.38;5.00;;;8.50;77.00;;;;;;5026669;28;20053;-71
2021/01/22 02:50:34;;;;;;;8.40;5.07;;;8.60;76.70;;;;;;5042114;28;20036;-71
2021/01/22 02:53:04;;;;;;;9.68;6.03;;;8.60;76.50;;;;;;5044225;28;20025;-70
2021/01/22 02:55:32;;;;;;;9.45;5.47;;;8.50;76.60;;;;;;5038673;28;21727;-71
2021/01/22 02:57:58;;;;;;;12.30;6.40;;;8.40;76.70;;;;;;5038554;28;20521;-71
2021/01/22 03:00:31;;;;;;;10.20;6.05;;;8.40;76.80;;;;;;5039150;28;20049;-71
2021/01/22 03:03:34;;;;;;;11.48;6.05;;;8.40;76.90;;;;;;5018036;28;20116;-71
2021/01/22 03:06:01;;;;;;;10.02;6.03;;;8.40;76.80;;;;;;5035430;28;20447;-71
2021/01/22 03:08:29;;;;;;;11.07;5.88;;;8.40;76.60;;;;;;5042865;28;20434;-71
2021/01/22 03:10:56;;;;;;;12.77;7.10;;;8.50;76.30;;;;;;5040554;28;20531;-71
2021/01/22 03:13:25;;;;;;;10.93;6.43;;;8.50;76.10;;;;;;5048004;28;20036;-71
2021/01/22 03:15:51;;;;;;;11.20;6.50;;;8.50;76.00;;;;;;5021522;28;20116;-71
2021/01/22 03:18:19;;;;;;;10.85;6.93;;;8.50;76.10;;;;;;5048448;28;20108;-71
2021/01/22 03:20:48;;;;;;;12.27;6.85;;;8.50;75.90;;;;;;5040886;28;20039;-71
2021/01/22 03:23:16;;;;;;;10.52;6.55;;;8.50;75.80;;;;;;5031120;28;20367;-71
2021/01/22 03:25:42;;;;;;;11.55;6.03;;;8.50;75.70;;;;;;5044601;28;20486;-71
2021/01/22 03:28:09;;;;;;;11.90;7.72;;;8.40;75.80;;;;;;5031943;28;20061;-70
2021/01/22 03:30:34;;;;;;;11.02;6.10;;;8.30;76.00;;;;;;5025823;28;20041;-71
2021/01/22 03:33:00;;;;;;;12.38;6.85;;;8.30;76.30;;;;;;5036900;28;20048;-71
2021/01/22 03:35:27;;;;;;;9.32;6.07;;;8.30;76.30;;;;;;5026697;28;20035;-71
2021/01/22 03:37:53;;;;;;;9.02;5.93;;;8.20;76.40;;;;;;5025729;28;20095;-71
2021/01/22 03:40:19;;;;;;;10.32;6.30;;;8.20;76.70;;;;;;5044046;28;20078;-70
2021/01/22 03:42:48;;;;;;;10.75;6.47;;;8.20;77.00;;;;;;5020223;28;20029;-71
2021/01/22 03:45:15;;;;;;;10.38;6.43;;;8.20;76.90;;;;;;5026381;28;20025;-71
2021/01/22 03:47:41;;;;;;;9.75;5.80;;;8.20;76.80;;;;;;5043437;28;20106;-71
2021/01/22 03:50:07;;;;;;;9.45;5.35;;;8.30;76.60;;;;;;5039310;28;20439;-70
2021/01/22 03:52:33;;;;;;;8.93;4.80;;;8.30;76.30;;;;;;5025279;28;20371;-71
2021/01/22 03:54:59;;;;;;;9.48;5.30;;;8.30;76.20;;;;;;5043763;28;20040;-70
2021/01/22 03:57:24;;;;;;;7.32;4.63;;;8.30;76.20;;;;;;5026266;28;20445;-71
2021/01/22 03:59:50;;;;;;;7.15;4.40;;;8.30;76.00;;;;;;5039950;28;20088;-71
2021/01/22 04:02:17;;;;;;;14.10;5.93;;;8.30;75.70;;;;;;5065471;28;20028;-71
2021/01/22 04:04:44;;;;;;;7.68;4.13;;;8.30;75.80;;;;;;5062056;28;20126;-71
2021/01/22 04:07:11;;;;;;;7.60;4.03;;;10.00;76.80;;;;;;5059683;28;20048;-71
2021/01/22 04:09:37;;;;;;;6.72;3.97;;;8.20;75.70;;;;;;5059694;28;20474;-71
2021/01/22 04:12:02;;;;;;;6.88;3.95;;;8.30;75.70;;;;;;5055492;28;20025;-70
2021/01/22 04:14:28;;;;;;;7.80;3.92;;;8.30;75.70;;;;;;5064645;28;20135;-71
2021/01/22 04:16:58;;;;;;;8.98;4.45;;;8.20;75.80;;;;;;5056052;28;20866;-71
2021/01/22 04:19:25;;;;;;;6.30;3.33;;;8.30;75.90;;;;;;5056554;28;20028;-70
2021/01/22 04:21:51;;;;;;;7.60;3.15;;;8.20;75.80;;;;;;5061933;28;20132;-71
2021/01/22 04:24:17;;;;;;;8.32;3.95;;;8.30;75.80;;;;;;5054004;28;20112;-71
2021/01/22 04:26:44;;;;;;;7.65;3.28;;;8.30;75.80;;;;;;5049183;28;20431;-71
2021/01/22 04:29:11;;;;;;;6.10;3.03;;;8.30;75.60;;;;;;5054684;28;20029;-71
2021/01/22 04:31:36;;;;;;;7.15;4.07;;;8.40;75.60;;;;;;5063960;28;20096;-72
2021/01/22 04:34:02;;;;;;;6.50;3.53;;;9.50;76.20;;;;;;5055951;28;20095;-71
2021/01/22 04:36:28;;;;;;;5.85;3.25;;;8.40;75.50;;;;;;5061603;28;20108;-71
2021/01/22 04:38:53;;;;;;;7.65;3.63;;;8.40;75.90;;;;;;5063086;28;20161;-69
2021/01/22 04:41:19;;;;;;;7.22;3.17;;;8.40;76.00;;;;;;5061680;28;20115;-69
2021/01/22 04:43:45;;;;;;;7.32;3.38;;;8.40;75.90;;;;;;5062734;28;20033;-69
2021/01/22 04:46:11;;;;;;;9.00;3.17;;;8.40;75.90;;;;;;5046954;28;20063;-69
2021/01/22 04:48:38;;;;;;;6.50;3.17;;;10.10;77.00;;;;;;5059829;28;20049;-69
2021/01/22 04:51:04;;;;;;;7.60;3.47;;;8.40;75.80;;;;;;5059985;28;20132;-69
2021/01/22 04:53:34;;;;;;;7.65;3.60;;;8.40;75.70;;;;;;5055818;28;20031;-69
2021/01/22 04:56:01;;;;;;;5.95;3.55;;;8.40;75.70;;;;;;5055349;28;20108;-69
2021/01/22 04:58:28;;;;;;;7.15;4.30;;;8.40;75.70;;;;;;5048659;28;20451;-69
2021/01/22 05:00:54;;;;;;;8.60;3.92;;;8.40;75.60;;;;;;5032739;28;20037;-69
2021/01/22 05:03:26;;;;;;;6.70;3.60;;;8.50;75.70;;;;;;5036741;28;20470;-69
2021/01/22 05:06:01;;;;;;;7.10;4.03;;;8.50;75.60;;;;;;5037032;28;20044;-69
2021/01/22 05:08:27;;;;;;;7.22;4.18;;;8.50;75.70;;;;;;5032517;28;20030;-69
2021/01/22 05:10:53;;;;;;;7.47;3.95;;;8.40;75.70;;;;;;5034220;28;20525;-69
2021/01/22 05:13:20;;;;;;;7.93;4.25;;;8.50;75.70;;;;;;5013301;28;20029;-69
2021/01/22 05:16:08;;;;;;;10.60;5.40;;;8.40;75.70;;;;;;5033985;28;20021;-69
2021/01/22 05:18:33;;;;;;;9.43;5.40;;;8.40;75.80;;;;;;5022286;28;20080;-69
2021/01/22 05:21:06;;;;;;;12.85;5.50;;;8.40;76.00;;;;;;5024875;28;20053;-69
2021/01/22 05:23:33;;;;;;;12.23;7.15;;;8.40;76.00;;;;;;5020722;28;20033;-69
2021/01/22 05:26:07;;;;;;;10.90;6.32;;;8.40;76.00;;;;;;5037971;28;20041;-69
2021/01/22 05:28:53;;;;;;;14.02;7.72;;;8.40;75.80;;;;;;5038650;28;20025;-69
2021/01/22 05:31:19;;;;;;;14.18;9.00;;;8.50;75.70;;;;;;5020500;28;20117;-69
2021/01/22 05:33:57;;;;;;;12.85;8.27;;;8.50;75.90;;;;;;5019324;28;20120;-69
2021/01/22 05:36:25;;;;;;;12.13;8.40;;;8.40;76.10;;;;;;5026029;28;20082;-69
2021/01/22 05:38:51;;;;;;;13.18;9.20;;;8.50;76.20;;;;;;5044243;28;20052;-69
2021/01/22 05:41:17;;;;;;;17.48;11.15;;;8.50;76.00;;;;;;5039742;28;20044;-69
2021/01/22 05:43:43;;;;;;;18.45;12.68;;;8.50;76.00;;;;;;5045561;28;20033;-69
2021/01/22 05:46:14;;;;;;;18.83;11.13;;;8.50;76.00;;;;;;5040567;28;20034;-69
2021/01/22 05:48:41;;;;;;;19.75;11.45;;;8.50;76.20;;;;;;5036885;28;20125;-69
2021/01/22 05:51:07;;;;;;;17.95;11.60;;;8.50;76.10;;;;;;5037524;28;20040;-69
2021/01/22 05:53:32;;;;;;;17.52;12.13;;;8.60;76.00;;;;;;5043976;28;20075;-70
2021/01/22 05:56:17;;;;;;;19.75;13.02;;;8.60;75.70;;;;;;5027669;28;20037;-69
2021/01/22 05:58:47;;;;;;;18.73;13.30;;;8.60;75.80;;;;;;5043766;28;20057;-70
2021/01/22 06:01:20;;;;;;;19.85;14.35;;;8.60;75.90;;;;;;5040403;28;20497;-70
2021/01/22 06:03:50;;;;;;;21.40;14.50;;;8.60;75.70;;;;;;5022661;28;20119;-71
2021/01/22 06:06:17;;;;;;;23.65;13.20;;;8.60;75.80;;;;;;5041980;28;20136;-70
2021/01/22 06:08:51;;;;;;;20.50;14.27;;;8.70;75.70;;;;;;5015257;28;20455;-71
2021/01/22 06:11:20;;;;;;;22.90;15.43;;;8.70;75.40;;;;;;5029705;28;20337;-71
2021/01/22 06:13:48;;;;;;;20.90;14.73;;;8.70;75.50;;;;;;5045183;28;20029;-71
2021/01/22 06:16:19;;;;;;;21.75;14.10;;;8.70;75.60;;;;;;5025168;28;20048;-71
2021/01/22 06:19:03;;;;;;;19.27;13.55;;;8.70;75.60;;;;;;5025916;28;20393;-71
2021/01/22 06:21:35;;;;;;;20.80;14.15;;;8.70;75.70;;;;;;5042271;28;20111;-71
2021/01/22 06:24:03;;;;;;;21.27;14.00;;;8.70;75.70;;;;;;5043093;28;20037;-70
2021/01/22 06:26:38;;;;;;;21.55;13.45;;;8.70;75.70;;;;;;5039663;28;20063;-71
2021/01/22 06:29:06;;;;;;;22.30;13.07;;;8.60;75.80;;;;;;5003434;28;20127;-70
2021/01/22 06:31:32;;;;;;;23.13;16.20;;;8.60;75.80;;;;;;5042218;28;20056;-70
2021/01/22 06:33:58;;;;;;;30.33;15.85;;;8.60;75.70;;;;;;5039641;28;20033;-70
2021/01/22 06:36:25;;;;;;;23.83;15.70;;;8.70;75.70;;;;;;5028727;28;20044;-70
2021/01/22 06:38:52;;;;;;;24.00;15.95;;;8.70;75.60;;;;;;5044132;28;20059;-71
2021/01/22 06:41:23;;;;;;;25.08;15.75;;;8.80;75.50;;;;;;5031784;28;20045;-71
2021/01/22 06:43:50;;;;;;;21.48;14.43;;;8.80;75.30;;;;;;5042869;28;20091;-71
2021/01/22 06:46:19;;;;;;;19.77;13.02;;;8.80;75.40;;;;;;5043847;28;20108;-71
2021/01/22 06:48:56;;;;;;;23.02;14.80;;;8.70;75.50;;;;;;5039824;28;20144;-71
2021/01/22 06:51:23;;;;;;;23.83;13.85;;;8.60;75.50;;;;;;5039338;28;20483;-70
2021/01/22 06:54:07;;;;;;;24.77;14.82;;;8.70;75.50;;;;;;5044198;28;20190;-71
2021/01/22 06:56:49;;;;;;;20.63;13.98;;;8.60;75.50;;;;;;5024745;28;20036;-71
2021/01/22 06:59:20;;;;;;;25.25;14.93;;;8.60;75.40;;;;;;5041010;28;20053;-70
2021/01/22 07:01:47;;;;;;;22.80;13.00;;;8.60;75.40;;;;;;5036746;28;20075;-71
2021/01/22 07:04:31;;;;;;;22.17;13.30;;;8.50;75.70;;;;;;5042738;28;20114;-71
2021/01/22 07:07:03;;;;;;;19.90;13.05;;;8.40;75.70;;;;;;5043975;28;20095;-70
2021/01/22 07:09:41;;;;;;;21.05;13.25;;;8.40;75.80;;;;;;5043623;28;20029;-71
2021/01/22 07:12:08;;;;;;;24.20;14.60;;;8.40;75.70;;;;;;5040342;28;20064;-71
2021/01/22 07:14:39;;;;;;;21.42;14.07;;;8.40;75.70;;;;;;5040924;28;20379;-71
2021/01/22 07:17:16;;;;;;;21.77;13.23;;;8.50;75.60;;;;;;5038089;28;20425;-71
2021/01/22 07:20:00;;;;;;;22.08;13.77;;;8.50;75.60;;;;;;5024053;28;20029;-71
2021/01/22 07:22:29;;;;;;;;;;;8.40;76.20;;;;;;5046161;28;20521;-71
2021/01/22 07:25:00;;;;;;;28.00;16.60;;;8.50;75.20;;;;;;5040564;28;19999;-71
2021/01/22 07:27:39;;;;;;;36.60;21.00;;;8.50;75.10;;;;;;5036121;28;20100;-70
2021/01/22 07:30:16;;;;;;;31.45;19.42;;;8.60;75.20;;;;;;5021424;28;20341;-70
2021/01/22 07:32:43;;;;;;;21.85;14.35;;;8.60;75.20;;;;;;5037972;28;20029;-70
2021/01/22 07:35:21;;;;;;;20.23;13.65;;;8.60;75.30;;;;;;5045837;28;20040;-71
2021/01/22 07:37:48;;;;;;;19.60;13.90;;;8.60;75.20;;;;;;5033606;28;20021;-70
2021/01/22 07:40:14;;;;;;;23.30;13.90;;;8.60;75.20;;;;;;5040425;28;20186;-71
2021/01/22 07:42:40;;;;;;;20.35;13.98;;;8.60;75.00;;;;;;5033534;28;20108;-71
2021/01/22 07:45:09;;;;;;;19.98;12.63;;;8.60;74.90;;;;;;5039499;28;20059;-70
2021/01/22 07:47:37;;;;;;;20.73;12.90;;;8.60;74.90;;;;;;5039925;28;20056;-70
2021/01/22 07:50:10;;;;;;;19.05;13.55;;;8.60;74.90;;;;;;5016420;28;20037;-69
2021/01/22 07:52:46;;;;;;;17.83;11.35;;;8.60;75.00;;;;;;5035110;28;20025;-70
2021/01/22 07:55:20;;;;;;;17.83;10.77;;;8.50;75.00;;;;;;5019559;28;20400;-71
2021/01/22 07:57:46;;;;;;;;;;;8.50;75.60;;;;;;5042378;28;20036;-70
2021/01/22 08:00:14;;;;;;;19.77;11.55;;;8.50;75.10;;;;;;5041671;28;19917;-70
2021/01/22 08:02:55;;;;;;;18.95;10.85;;;8.40;75.20;;;;;;5020292;28;20042;-71
2021/01/22 08:05:29;;;;;;;21.25;11.90;;;8.40;75.60;;;;;;5018159;28;20471;-70
2021/01/22 08:07:55;;;;;;;19.48;11.57;;;8.40;75.70;;;;;;5042775;28;20067;-71
2021/01/22 08:10:30;;;;;;;22.15;14.00;;;8.50;75.60;;;;;;5020111;28;20448;-71
2021/01/22 08:13:00;;;;;;;21.80;13.73;;;8.50;75.40;;;;;;5042533;28;20125;-71
2021/01/22 08:15:27;;;;;;;20.77;12.05;;;8.60;75.20;;;;;;5022688;28;20052;-70
2021/01/22 08:17:54;;;;;;;20.58;12.60;;;8.60;75.10;;;;;;5038352;28;20055;-70
2021/01/22 08:20:21;;;;;;;18.35;12.50;;;8.70;75.00;;;;;;5041997;28;20095;-71
2021/01/22 08:22:57;;;;;;;19.83;11.98;;;8.70;75.00;;;;;;5031469;28;20033;-71
2021/01/22 08:25:38;;;;;;;17.85;11.55;;;8.70;74.80;;;;;;5045525;28;20048;-71
2021/01/22 08:28:06;;;;;;;17.58;11.18;;;8.70;74.70;;;;;;5043085;28;20039;-71
2021/01/22 08:30:32;;;;;;;18.92;11.90;;;8.70;74.70;;;;;;5019161;28;20483;-71
2021/01/22 08:32:59;;;;;;;16.88;11.23;;;8.70;74.70;;;;;;5025522;28;20426;-71
2021/01/22 08:35:26;;;;;;;18.60;12.02;;;8.70;75.00;;;;;;5020515;28;20044;-71
2021/01/22 08:37:53;;;;;;;17.83;10.93;;;8.60;75.10;;;;;;5042098;28;20487;-71
2021/01/22 08:40:19;;;;;;;22.70;11.73;;;8.70;75.10;;;;;;5041995;28;20033;-71
2021/01/22 08:42:59;;;;;;;19.00;10.88;;;8.70;74.80;;;;;;5037074;28;20836;-71
2021/01/22 08:45:25;;;;;;;21.30;11.07;;;8.60;74.90;;;;;;5038786;28;20045;-70
2021/01/22 08:47:51;;;;;;;16.38;10.48;;;8.70;74.90;;;;;;5041037;28;20116;-70
2021/01/22 08:50:21;;;;;;;15.77;10.18;;;8.70;74.70;;;;;;5041246;28;20060;-70
2021/01/22 08:53:02;;;;;;;15.80;10.25;;;8.80;74.60;;;;;;5023145;28;20063;-70
2021/01/22 08:55:27;;;;;;;15.95;10.43;;;8.90;74.40;;;;;;5033243;28;20517;-72
2021/01/22 08:58:00;;;;;;;17.58;10.45;;;8.90;74.30;;;;;;5010470;28;20064;-71
2021/01/22 09:00:27;;;;;;;17.92;10.48;;;8.90;74.40;;;;;;5037650;28;20099;-73
2021/01/22 09:02:52;;;;;;;17.27;10.73;;;8.90;74.30;;;;;;5039810;28;20491;-72
2021/01/22 09:05:18;;;;;;;16.33;10.57;;;8.90;74.00;;;;;;4998401;28;20025;-72
2021/01/22 09:07:44;;;;;;;17.20;10.13;;;8.90;74.10;;;;;;5010862;28;20040;-71
2021/01/22 09:10:27;;;;;;;15.18;8.82;;;9.00;74.10;;;;;;5039033;28;20033;-71
2021/01/22 09:12:54;;;;;;;15.50;9.77;;;9.10;73.80;;;;;;5036588;28;20025;-71
2021/01/22 09:15:20;;;;;;;14.05;9.80;;;9.10;73.70;;;;;;5019886;28;20037;-71
2021/01/22 09:17:50;;;;;;;15.23;8.75;;;9.10;73.70;;;;;;5041640;28;20028;-71
2021/01/22 09:20:20;;;;;;;14.25;8.57;;;9.10;73.60;;;;;;5040291;28;20125;-71
2021/01/22 09:22:50;;;;;;;13.95;8.27;;;9.20;73.70;;;;;;5039223;28;20040;-71
2021/01/22 09:25:18;;;;;;;17.35;10.07;;;9.20;73.50;;;;;;5040773;28;20025;-70
2021/01/22 09:27:48;;;;;;;15.40;8.80;;;9.20;73.40;;;;;;5038052;28;20061;-70
2021/01/22 09:30:16;;;;;;;15.43;9.55;;;9.20;73.30;;;;;;5026037;28;20097;-70
2021/01/22 09:32:47;;;;;;;14.10;9.05;;;9.10;73.60;;;;;;5042372;28;20025;-70
2021/01/22 09:35:13;;;;;;;14.13;9.55;;;9.10;73.80;;;;;;5018620;28;20026;-71
2021/01/22 09:37:39;;;;;;;18.63;9.57;;;9.20;73.70;;;;;;5024949;28;20033;-70
2021/01/22 09:40:06;;;;;;;16.67;8.80;;;9.20;73.60;;;;;;5040492;28;20037;-70
2021/01/22 09:42:32;;;;;;;17.48;9.10;;;9.30;73.50;;;;;;5017348;28;20494;-70
2021/01/22 09:44:58;;;;;;;14.63;8.65;;;9.30;73.30;;;;;;5024132;28;20037;-71
2021/01/22 09:47:23;;;;;;;19.15;9.73;;;9.30;73.30;;;;;;5043122;28;20115;-71
2021/01/22 09:49:49;;;;;;;16.70;9.18;;;9.40;73.30;;;;;;5037266;28;20109;-71
2021/01/22 09:52:15;;;;;;;16.48;9.57;;;9.40;72.90;;;;;;5024668;28;20159;-71
2021/01/22 09:54:45;;;;;;;16.75;8.48;;;9.40;72.80;;;;;;5026341;28;20030;-70
2021/01/22 09:57:11;;;;;;;17.33;9.48;;;9.40;72.70;;;;;;5026321;28;20136;-71
2021/01/22 09:59:37;;;;;;;15.40;8.52;;;9.30;73.00;;;;;;5037938;28;20044;-71
2021/01/22 10:02:03;;;;;;;18.10;8.70;;;9.40;73.30;;;;;;5045912;28;20394;-71
2021/01/22 10:04:29;;;;;;;12.35;8.00;;;9.40;73.10;;;;;;5060697;28;20051;-71
2021/01/22 10:06:55;;;;;;;13.52;8.55;;;9.50;73.20;;;;;;5063471;28;20423;-71
2021/01/22 10:09:21;;;;;;;14.98;9.10;;;9.60;72.80;;;;;;5059327;28;20549;-71
2021/01/22 10:11:47;;;;;;;15.57;8.18;;;9.70;72.40;;;;;;5061892;28;20102;-71
2021/01/22 10:14:13;;;;;;;16.17;8.95;;;9.80;72.40;;;;;;5060581;28;20065;-71
2021/01/22 10:16:38;;;;;;;16.73;9.20;;;9.90;72.10;;;;;;5046400;28;20060;-71
2021/01/22 10:19:04;;;;;;;16.00;8.60;;;10.00;72.20;;;;;;5063139;28;20559;-71
2021/01/22 10:21:30;;;;;;;14.02;8.20;;;10.10;71.70;;;;;;5048970;28;20362;-71
2021/01/22 10:23:56;;;;;;;12.15;6.93;;;10.20;71.80;;;;;;5064585;28;20175;-71
2021/01/22 10:26:23;;;;;;;15.63;8.75;;;10.40;71.20;;;;;;5060822;28;20111;-70
2021/01/22 10:28:50;;;;;;;13.73;7.03;;;10.30;70.80;;;;;;5059065;28;20033;-70
2021/01/22 10:31:16;;;;;;;17.05;7.63;;;10.40;70.80;;;;;;5079490;28;20068;-70
2021/01/22 10:33:42;;;;;;;13.60;7.60;;;10.40;70.30;;;;;;5059977;28;20473;-71
2021/01/22 10:36:08;;;;;;;15.48;7.00;;;10.40;70.40;;;;;;5058831;28;20601;-70
2021/01/22 10:38:35;;;;;;;13.20;6.70;;;10.50;70.20;;;;;;5064473;28;20224;-71
2021/01/22 10:41:02;;;;;;;15.88;6.78;;;10.50;70.00;;;;;;5056740;28;20059;-70
2021/01/22 10:43:28;;;;;;;12.35;6.63;;;10.40;70.20;;;;;;5060271;28;20032;-70
2021/01/22 10:45:54;;;;;;;13.05;6.45;;;10.40;70.30;;;;;;5033379;28;20101;-70
2021/01/22 10:48:19;;;;;;;12.45;7.57;;;10.40;70.50;;;;;;5062659;28;20033;-70
2021/01/22 10:50:46;;;;;;;10.40;6.80;;;10.50;70.30;;;;;;5062819;28;20065;-70
2021/01/22 10:53:12;;;;;;;13.68;6.97;;;10.70;69.90;;;;;;5063280;28;20058;-70
2021/01/22 10:55:38;;;;;;;12.88;7.65;;;10.70;69.60;;;;;;5059417;28;20060;-70
2021/01/22 10:58:04;;;;;;;15.20;7.60;;;10.80;69.20;;;;;;5058517;28;20043;-70
2021/01/22 11:00:32;;;;;;;12.82;6.63;;;10.80;68.80;;;;;;5049876;28;20052;-71
2021/01/22 11:02:58;;;;;;;14.93;6.85;;;10.80;68.90;;;;;;5044756;28;20133;-70
2021/01/22 11:05:24;;;;;;;11.57;6.30;;;10.70;69.10;;;;;;5025891;28;20028;-71
2021/01/22 11:07:49;;;;;;;13.40;6.60;;;10.60;69.00;;;;;;5041416;28;20055;-70
2021/01/22 11:10:15;;;;;;;12.10;6.03;;;10.60;69.50;;;;;;5018532;28;20163;-70
2021/01/22 11:12:41;;;;;;;17.42;7.43;;;10.60;69.30;;;;;;5042928;28;20120;-70
2021/01/22 11:15:07;;;;;;;10.68;6.10;;;10.60;69.00;;;;;;5022944;28;20037;-70
2021/01/22 11:17:33;;;;;;;10.23;5.45;;;10.60;69.20;;;;;;5017743;28;20121;-70
2021/01/22 11:20:02;;;;;;;10.57;5.78;;;10.70;69.00;;;;;;5038124;28;20124;-70
2021/01/22 11:22:29;;;;;;;13.30;6.32;;;10.70;69.00;;;;;;5037818;28;20108;-70
2021/01/22 11:24:54;;;;;;;14.60;5.85;;;10.70;68.90;;;;;;5023353;28;20037;-70
2021/01/22 11:27:20;;;;;;;10.73;5.93;;;10.70;68.70;;;;;;5040977;28;20531;-70
2021/01/22 11:29:46;;;;;;;13.18;5.78;;;10.70;68.90;;;;;;5043709;28;20059;-70
2021/01/22 11:32:12;;;;;;;12.52;6.32;;;10.70;69.10;;;;;;5043975;28;20037;-70
2021/01/22 11:34:38;;;;;;;22.25;8.80;;;10.80;68.80;;;;;;5016252;28;20039;-70
2021/01/22 11:37:03;;;;;;;11.05;5.85;;;11.00;68.40;;;;;;5035536;28;20032;-70
2021/01/22 11:39:30;;;;;;;12.23;5.55;;;11.10;68.20;;;;;;5035432;28;20407;-70
2021/01/22 11:41:56;;;;;;;12.88;5.32;;;11.10;68.00;;;;;;5039769;28;20056;-70
2021/01/22 11:44:22;;;;;;;16.63;6.22;;;11.20;67.60;;;;;;5042698;28;20533;-71
2021/01/22 11:46:48;;;;;;;16.83;6.57;;;11.30;67.60;;;;;;5037223;28;20037;-71
2021/01/22 11:49:13;;;;;;;15.70;6.00;;;11.30;67.50;;;;;;5020724;28;20060;-70
2021/01/22 11:51:39;;;;;;;16.17;5.68;;;11.40;67.50;;;;;;5012815;28;20045;-70
2021/01/22 11:54:05;;;;;;;10.82;4.93;;;11.50;66.40;;;;;;5010988;28;20032;-70
2021/01/22 11:56:33;;;;;;;12.73;5.50;;;11.40;66.50;;;;;;5012607;28;20424;-71
2021/01/22 11:58:59;;;;;;;10.77;4.40;;;11.40;66.40;;;;;;5002212;28;20033;-71
2021/01/22 12:01:25;;;;;;;14.23;5.88;;;11.30;66.50;;;;;;5018317;28;20434;-71
2021/01/22 12:03:52;;;;;;;10.98;4.50;;;11.30;66.70;;;;;;5033213;28;20094;-70
2021/01/22 12:06:18;;;;;;;9.77;5.60;;;11.30;67.00;;;;;;5042945;28;20029;-71
2021/01/22 12:08:43;;;;;;;11.35;4.80;;;11.10;65.90;;;;;;5022031;28;20501;-70
2021/01/22 12:11:09;;;;;;;12.43;5.32;;;11.40;66.10;;;;;;5021481;28;20117;-70
2021/01/22 12:13:35;;;;;;;12.43;5.22;;;11.30;65.80;;;;;;5014568;28;20044;-71
2021/01/22 12:16:00;;;;;;;13.45;5.22;;;11.40;66.10;;;;;;5033635;28;20041;-70
2021/01/22 12:18:26;;;;;;;12.82;5.53;;;11.40;66.10;;;;;;5014925;28;20460;-71
2021/01/22 12:20:51;;;;;;;9.18;4.45;;;11.30;66.00;;;;;;5043740;28;20443;-71
2021/01/22 12:23:17;;;;;;;10.45;4.93;;;11.40;66.10;;;;;;5038317;28;20033;-71
2021/01/22 12:25:46;;;;;;;10.70;4.40;;;11.30;65.40;;;;;;5038706;28;20517;-71
2021/01/22 12:28:13;;;;;;;9.02;4.50;;;11.20;65.70;;;;;;5046350;28;20032;-71
2021/01/22 12:30:39;;;;;;;9.05;4.13;;;11.20;66.00;;;;;;5013691;28;20375;-71
2021/01/22 12:33:05;;;;;;;12.85;5.60;;;11.20;66.10;;;;;;5048898;28;20040;-71
2021/01/22 12:35:31;;;;;;;10.43;4.82;;;11.20;65.80;;;;;;5022456;28;20034;-71
2021/01/22 12:37:56;;;;;;;12.52;6.15;;;11.20;65.30;;;;;;5028058;28;20036;-71
2021/01/22 12:40:22;;;;;;;12.25;5.60;;;11.10;65.10;;;;;;5029401;28;20502;-71
2021/01/22 12:42:48;;;;;;;9.68;4.32;;;11.00;65.60;;;;;;5029720;28;20029;-71
2021/01/22 12:45:15;;;;;;;8.25;4.05;;;11.00;65.30;;;;;;5023120;28;20037;-70
2021/01/22 12:47:41;;;;;;;11.77;4.68;;;10.90;65.40;;;;;;5043423;28;20060;-71
2021/01/22 12:50:08;;;;;;;12.80;4.95;;;10.90;65.60;;;;;;5039546;28;20053;-71